Pagina principale
METAR-TAF:

METAR-TAF

Aeroporti :

Aeroporto di Belgrado-Nikola Tesla

Belgrado, Serbia

latitudine: 44-49N, longitudine: 020-17E, altezza: 96 m

Osservazione

Il bollettino è stato emesso 39 minuti fa, alle 02:30 UTC
Vento 6 kt da ovest/sud-ovest
Temperature 10°C
Umidità 100%
Pressione 1023 hPa
Visibilità: 5000 m
Nuvoloso ad un'altezza di 3000 ft
foschia

METAR: LYBE 230230Z 25006KT 5000 BR BKN030 10/10 Q1023 NOSIG

Ora: 05:09 (03:09 UTC)

Previsione

Il bollettino è stato emesso 4 ore e 9 minuti fa, alle 23:00 UTC
Previsione valida dal 23 alle 00 UTC al 23 alle 24 UTC
Vento 5 kt da nord-ovest
Visibilità: 7000 m
Nuvoloso ad un'altezza di 3500 ft
Temporaneamente
dal 23 alle 01 UTC al 23 alle 04 UTC
Visibilità: 3000 m
foschia
Temporaneamente
dal 23 alle 10 UTC al 23 alle 14 UTC
Vento 12 kt da ovest/nord-ovest

TAF: LYBE 222300Z 2300/2324 32005KT 7000 BKN035 TX15/2313Z TN09/2306Z TEMPO 2301/2304 3000 BR TEMPO 2310/2314 30012KT

Osservazioni e previsioni meteorologiche di più di 4000 aeroporti (messaggi METAR e TAF).

Le stazioni disponibili sono rappresentate dai dischi gialli e rossi sulla carta.

Puntare il mouse per vedere il nome della stazione.

Clicca sopra per visualizzare le osservazioni e previsioni meteorologiche.

Per cambiare la mappa : fare clic sui pulsanti verdi con una croce nera per ingrandire, il pulsante verde con un trattino per diminuire, o sulla freccia verde per le mappe adiacenti.


METAR-TAF: